sensor_id;sensor_type;location;lat;lon;timestamp;P1;durP1;ratioP1;P2;durP2;ratioP2
9178;SDS011;71287;48.414;11.478;2023-08-06T00:00:20;2.17;;;2.00;;
9178;SDS011;71287;48.414;11.478;2023-08-06T00:02:48;2.17;;;2.07;;
9178;SDS011;71287;48.414;11.478;2023-08-06T00:05:15;2.00;;;1.90;;
9178;SDS011;71287;48.414;11.478;2023-08-06T00:07:43;1.70;;;1.60;;
9178;SDS011;71287;48.414;11.478;2023-08-06T00:10:10;2.67;;;1.77;;
9178;SDS011;71287;48.414;11.478;2023-08-06T00:12:38;2.30;;;1.80;;
9178;SDS011;71287;48.414;11.478;2023-08-06T00:15:05;5.23;;;2.27;;
9178;SDS011;71287;48.414;11.478;2023-08-06T00:17:33;2.17;;;1.80;;
9178;SDS011;71287;48.414;11.478;2023-08-06T00:20:00;2.93;;;1.60;;
9178;SDS011;71287;48.414;11.478;2023-08-06T00:22:29;2.20;;;1.70;;
9178;SDS011;71287;48.414;11.478;2023-08-06T00:24:56;2.57;;;1.40;;
9178;SDS011;71287;48.414;11.478;2023-08-06T00:27:23;1.87;;;1.77;;
9178;SDS011;71287;48.414;11.478;2023-08-06T00:29:51;2.63;;;1.60;;
9178;SDS011;71287;48.414;11.478;2023-08-06T00:32:18;2.10;;;1.90;;
9178;SDS011;71287;48.414;11.478;2023-08-06T00:34:45;2.63;;;1.67;;
9178;SDS011;71287;48.414;11.478;2023-08-06T00:37:14;2.13;;;1.50;;
9178;SDS011;71287;48.414;11.478;2023-08-06T00:39:41;1.77;;;1.67;;
9178;SDS011;71287;48.414;11.478;2023-08-06T00:42:08;2.03;;;1.67;;
9178;SDS011;71287;48.414;11.478;2023-08-06T00:44:35;2.10;;;2.00;;
9178;SDS011;71287;48.414;11.478;2023-08-06T00:47:03;2.20;;;2.00;;
9178;SDS011;71287;48.414;11.478;2023-08-06T00:49:31;2.00;;;1.90;;
9178;SDS011;71287;48.414;11.478;2023-08-06T00:51:58;2.53;;;1.60;;
9178;SDS011;71287;48.414;11.478;2023-08-06T00:54:25;3.00;;;1.60;;
9178;SDS011;71287;48.414;11.478;2023-08-06T00:56:54;2.00;;;1.90;;
9178;SDS011;71287;48.414;11.478;2023-08-06T00:59:22;2.07;;;1.87;;
9178;SDS011;71287;48.414;11.478;2023-08-06T01:01:49;2.37;;;2.27;;
9178;SDS011;71287;48.414;11.478;2023-08-06T01:04:18;2.33;;;2.13;;
9178;SDS011;71287;48.414;11.478;2023-08-06T01:06:46;2.70;;;2.50;;
9178;SDS011;71287;48.414;11.478;2023-08-06T01:09:21;2.50;;;2.30;;
9178;SDS011;71287;48.414;11.478;2023-08-06T01:11:59;2.80;;;2.47;;
9178;SDS011;71287;48.414;11.478;2023-08-06T01:14:33;2.70;;;2.50;;
9178;SDS011;71287;48.414;11.478;2023-08-06T01:17:09;2.87;;;2.67;;
9178;SDS011;71287;48.414;11.478;2023-08-06T01:19:38;6.53;;;3.00;;
9178;SDS011;71287;48.414;11.478;2023-08-06T01:22:06;3.77;;;3.10;;
9178;SDS011;71287;48.414;11.478;2023-08-06T01:24:33;2.90;;;2.47;;
9178;SDS011;71287;48.414;11.478;2023-08-06T01:27:01;3.13;;;2.93;;
9178;SDS011;71287;48.414;11.478;2023-08-06T01:29:34;4.27;;;3.30;;
9178;SDS011;71287;48.414;11.478;2023-08-06T01:32:05;3.67;;;3.37;;
9178;SDS011;71287;48.414;11.478;2023-08-06T01:34:34;3.93;;;3.00;;
9178;SDS011;71287;48.414;11.478;2023-08-06T01:37:03;3.37;;;3.10;;
9178;SDS011;71287;48.414;11.478;2023-08-06T01:39:32;3.73;;;3.43;;
9178;SDS011;71287;48.414;11.478;2023-08-06T01:41:59;3.70;;;3.40;;
9178;SDS011;71287;48.414;11.478;2023-08-06T01:44:26;3.77;;;3.17;;
9178;SDS011;71287;48.414;11.478;2023-08-06T01:46:53;4.20;;;3.87;;
9178;SDS011;71287;48.414;11.478;2023-08-06T01:49:20;3.97;;;3.67;;
9178;SDS011;71287;48.414;11.478;2023-08-06T01:51:46;4.07;;;3.70;;
9178;SDS011;71287;48.414;11.478;2023-08-06T01:54:13;3.23;;;3.03;;
9178;SDS011;71287;48.414;11.478;2023-08-06T01:56:41;3.50;;;3.20;;
9178;SDS011;71287;48.414;11.478;2023-08-06T01:59:08;3.57;;;3.27;;
9178;SDS011;71287;48.414;11.478;2023-08-06T02:01:35;3.87;;;3.57;;
9178;SDS011;71287;48.414;11.478;2023-08-06T02:04:01;3.90;;;3.50;;
9178;SDS011;71287;48.414;11.478;2023-08-06T02:06:28;3.73;;;3.43;;
9178;SDS011;71287;48.414;11.478;2023-08-06T02:08:55;3.43;;;3.13;;
9178;SDS011;71287;48.414;11.478;2023-08-06T02:11:22;6.37;;;3.23;;
9178;SDS011;71287;48.414;11.478;2023-08-06T02:13:50;2.93;;;2.73;;
9178;SDS011;71287;48.414;11.478;2023-08-06T02:16:16;3.30;;;3.00;;
9178;SDS011;71287;48.414;11.478;2023-08-06T02:18:43;3.20;;;3.00;;
9178;SDS011;71287;48.414;11.478;2023-08-06T02:21:10;2.37;;;2.27;;
9178;SDS011;71287;48.414;11.478;2023-08-06T02:23:37;2.67;;;2.20;;
9178;SDS011;71287;48.414;11.478;2023-08-06T02:26:04;3.07;;;2.20;;
9178;SDS011;71287;48.414;11.478;2023-08-06T02:28:31;2.30;;;2.10;;
9178;SDS011;71287;48.414;11.478;2023-08-06T02:30:59;2.77;;;2.57;;
9178;SDS011;71287;48.414;11.478;2023-08-06T02:33:26;3.00;;;2.50;;
9178;SDS011;71287;48.414;11.478;2023-08-06T02:35:58;2.47;;;2.27;;
9178;SDS011;71287;48.414;11.478;2023-08-06T02:38:27;2.70;;;2.27;;
9178;SDS011;71287;48.414;11.478;2023-08-06T02:40:53;2.53;;;2.33;;
9178;SDS011;71287;48.414;11.478;2023-08-06T02:43:20;2.40;;;2.27;;
9178;SDS011;71287;48.414;11.478;2023-08-06T02:45:47;2.47;;;2.10;;
9178;SDS011;71287;48.414;11.478;2023-08-06T02:48:15;2.77;;;2.57;;
9178;SDS011;71287;48.414;11.478;2023-08-06T02:50:43;3.77;;;2.33;;
9178;SDS011;71287;48.414;11.478;2023-08-06T02:53:10;3.47;;;2.57;;
9178;SDS011;71287;48.414;11.478;2023-08-06T02:55:36;2.57;;;2.43;;
9178;SDS011;71287;48.414;11.478;2023-08-06T02:58:03;2.70;;;2.50;;
9178;SDS011;71287;48.414;11.478;2023-08-06T03:00:30;2.70;;;2.50;;
9178;SDS011;71287;48.414;11.478;2023-08-06T03:02:57;2.70;;;2.50;;
9178;SDS011;71287;48.414;11.478;2023-08-06T03:05:25;3.23;;;2.53;;
9178;SDS011;71287;48.414;11.478;2023-08-06T03:07:51;2.90;;;2.70;;
9178;SDS011;71287;48.414;11.478;2023-08-06T03:10:18;2.60;;;2.40;;
9178;SDS011;71287;48.414;11.478;2023-08-06T03:12:45;2.67;;;2.50;;
9178;SDS011;71287;48.414;11.478;2023-08-06T03:15:12;3.17;;;2.40;;
9178;SDS011;71287;48.414;11.478;2023-08-06T03:17:39;2.77;;;2.57;;
9178;SDS011;71287;48.414;11.478;2023-08-06T03:20:06;2.33;;;2.13;;
9178;SDS011;71287;48.414;11.478;2023-08-06T03:22:35;2.70;;;2.30;;
9178;SDS011;71287;48.414;11.478;2023-08-06T03:25:01;2.30;;;2.10;;
9178;SDS011;71287;48.414;11.478;2023-08-06T03:27:29;3.43;;;1.90;;
9178;SDS011;71287;48.414;11.478;2023-08-06T03:29:55;1.97;;;1.87;;
9178;SDS011;71287;48.414;11.478;2023-08-06T03:32:22;2.50;;;2.30;;
9178;SDS011;71287;48.414;11.478;2023-08-06T03:34:49;2.80;;;2.37;;
9178;SDS011;71287;48.414;11.478;2023-08-06T03:37:16;2.30;;;2.03;;
9178;SDS011;71287;48.414;11.478;2023-08-06T03:39:44;3.13;;;2.20;;
9178;SDS011;71287;48.414;11.478;2023-08-06T03:42:10;2.17;;;1.97;;
9178;SDS011;71287;48.414;11.478;2023-08-06T03:44:37;2.43;;;2.00;;
9178;SDS011;71287;48.414;11.478;2023-08-06T03:47:04;1.63;;;1.53;;
9178;SDS011;71287;48.414;11.478;2023-08-06T03:49:31;2.40;;;2.10;;
9178;SDS011;71287;48.414;11.478;2023-08-06T03:51:58;3.33;;;1.90;;
9178;SDS011;71287;48.414;11.478;2023-08-06T03:54:25;1.67;;;1.57;;
9178;SDS011;71287;48.414;11.478;2023-08-06T03:56:53;1.87;;;1.73;;
9178;SDS011;71287;48.414;11.478;2023-08-06T03:59:19;3.43;;;2.20;;
9178;SDS011;71287;48.414;11.478;2023-08-06T04:01:46;2.13;;;1.53;;
9178;SDS011;71287;48.414;11.478;2023-08-06T04:04:13;2.30;;;1.47;;
9178;SDS011;71287;48.414;11.478;2023-08-06T04:06:40;2.57;;;1.57;;
9178;SDS011;71287;48.414;11.478;2023-08-06T04:09:06;2.27;;;1.57;;
9178;SDS011;71287;48.414;11.478;2023-08-06T04:11:33;2.03;;;1.80;;
9178;SDS011;71287;48.414;11.478;2023-08-06T04:14:01;2.93;;;1.50;;
9178;SDS011;71287;48.414;11.478;2023-08-06T04:16:28;1.90;;;1.70;;
9178;SDS011;71287;48.414;11.478;2023-08-06T04:18:55;3.53;;;1.87;;
9178;SDS011;71287;48.414;11.478;2023-08-06T04:21:23;2.60;;;1.83;;
9178;SDS011;71287;48.414;11.478;2023-08-06T04:23:49;3.90;;;1.97;;
9178;SDS011;71287;48.414;11.478;2023-08-06T04:26:16;2.13;;;1.80;;
9178;SDS011;71287;48.414;11.478;2023-08-06T04:28:43;1.83;;;1.70;;
9178;SDS011;71287;48.414;11.478;2023-08-06T04:31:11;2.20;;;1.70;;
9178;SDS011;71287;48.414;11.478;2023-08-06T04:33:38;4.73;;;1.60;;
9178;SDS011;71287;48.414;11.478;2023-08-06T04:36:04;1.63;;;1.53;;
9178;SDS011;71287;48.414;11.478;2023-08-06T04:38:32;2.13;;;1.67;;
9178;SDS011;71287;48.414;11.478;2023-08-06T04:40:59;3.07;;;1.63;;
9178;SDS011;71287;48.414;11.478;2023-08-06T04:43:25;1.93;;;1.83;;
9178;SDS011;71287;48.414;11.478;2023-08-06T04:45:54;2.60;;;1.60;;
9178;SDS011;71287;48.414;11.478;2023-08-06T04:48:22;1.80;;;1.57;;
9178;SDS011;71287;48.414;11.478;2023-08-06T04:50:50;2.23;;;1.50;;
9178;SDS011;71287;48.414;11.478;2023-08-06T04:53:16;3.10;;;1.40;;
9178;SDS011;71287;48.414;11.478;2023-08-06T04:55:43;2.60;;;1.30;;
9178;SDS011;71287;48.414;11.478;2023-08-06T04:58:10;1.73;;;1.30;;
9178;SDS011;71287;48.414;11.478;2023-08-06T05:00:38;1.40;;;1.07;;
9178;SDS011;71287;48.414;11.478;2023-08-06T05:03:05;2.00;;;1.23;;
9178;SDS011;71287;48.414;11.478;2023-08-06T05:05:33;1.80;;;1.30;;
9178;SDS011;71287;48.414;11.478;2023-08-06T05:08:00;1.50;;;1.33;;
9178;SDS011;71287;48.414;11.478;2023-08-06T05:10:27;2.00;;;1.20;;
9178;SDS011;71287;48.414;11.478;2023-08-06T05:12:54;3.17;;;1.30;;
9178;SDS011;71287;48.414;11.478;2023-08-06T05:15:21;1.07;;;0.93;;
9178;SDS011;71287;48.414;11.478;2023-08-06T05:17:50;1.23;;;1.00;;
9178;SDS011;71287;48.414;11.478;2023-08-06T05:20:17;2.43;;;1.07;;
9178;SDS011;71287;48.414;11.478;2023-08-06T05:22:45;1.17;;;1.07;;
9178;SDS011;71287;48.414;11.478;2023-08-06T05:25:12;1.27;;;1.00;;
9178;SDS011;71287;48.414;11.478;2023-08-06T05:27:39;1.73;;;1.10;;
9178;SDS011;71287;48.414;11.478;2023-08-06T05:30:07;1.40;;;1.10;;
9178;SDS011;71287;48.414;11.478;2023-08-06T05:32:35;1.47;;;1.27;;
9178;SDS011;71287;48.414;11.478;2023-08-06T05:35:02;4.33;;;1.33;;
9178;SDS011;71287;48.414;11.478;2023-08-06T05:37:29;1.23;;;1.00;;
9178;SDS011;71287;48.414;11.478;2023-08-06T05:39:57;1.30;;;1.20;;
9178;SDS011;71287;48.414;11.478;2023-08-06T05:42:23;2.83;;;1.07;;
9178;SDS011;71287;48.414;11.478;2023-08-06T05:44:50;1.57;;;1.10;;
9178;SDS011;71287;48.414;11.478;2023-08-06T05:47:17;1.53;;;1.00;;
9178;SDS011;71287;48.414;11.478;2023-08-06T05:49:44;1.80;;;1.10;;
9178;SDS011;71287;48.414;11.478;2023-08-06T05:52:11;1.20;;;1.10;;
9178;SDS011;71287;48.414;11.478;2023-08-06T05:54:38;1.20;;;1.10;;
9178;SDS011;71287;48.414;11.478;2023-08-06T05:57:07;1.03;;;1.03;;
9178;SDS011;71287;48.414;11.478;2023-08-06T05:59:34;1.20;;;1.10;;
9178;SDS011;71287;48.414;11.478;2023-08-06T06:02:00;1.30;;;1.20;;
9178;SDS011;71287;48.414;11.478;2023-08-06T06:04:27;1.67;;;1.17;;
9178;SDS011;71287;48.414;11.478;2023-08-06T06:06:54;1.77;;;1.00;;
9178;SDS011;71287;48.414;11.478;2023-08-06T06:09:21;0.90;;;0.70;;
9178;SDS011;71287;48.414;11.478;2023-08-06T06:11:48;2.20;;;1.10;;
9178;SDS011;71287;48.414;11.478;2023-08-06T06:14:16;0.97;;;0.90;;
9178;SDS011;71287;48.414;11.478;2023-08-06T06:16:43;1.13;;;1.03;;
9178;SDS011;71287;48.414;11.478;2023-08-06T06:19:10;1.30;;;1.17;;
9178;SDS011;71287;48.414;11.478;2023-08-06T06:21:37;2.93;;;1.13;;
9178;SDS011;71287;48.414;11.478;2023-08-06T06:24:04;0.83;;;0.83;;
9178;SDS011;71287;48.414;11.478;2023-08-06T06:26:33;1.30;;;1.20;;
9178;SDS011;71287;48.414;11.478;2023-08-06T06:28:59;0.87;;;0.87;;
9178;SDS011;71287;48.414;11.478;2023-08-06T06:31:27;4.20;;;1.00;;
9178;SDS011;71287;48.414;11.478;2023-08-06T06:33:54;1.60;;;1.13;;
9178;SDS011;71287;48.414;11.478;2023-08-06T06:36:21;0.90;;;0.90;;
9178;SDS011;71287;48.414;11.478;2023-08-06T06:38:48;1.00;;;0.90;;
9178;SDS011;71287;48.414;11.478;2023-08-06T06:41:15;1.30;;;1.07;;
9178;SDS011;71287;48.414;11.478;2023-08-06T06:43:42;1.20;;;1.10;;
9178;SDS011;71287;48.414;11.478;2023-08-06T06:46:09;1.70;;;1.00;;
9178;SDS011;71287;48.414;11.478;2023-08-06T06:48:37;2.10;;;1.10;;
9178;SDS011;71287;48.414;11.478;2023-08-06T06:51:03;1.17;;;1.00;;
9178;SDS011;71287;48.414;11.478;2023-08-06T06:53:30;2.53;;;1.03;;
9178;SDS011;71287;48.414;11.478;2023-08-06T06:56:01;1.67;;;0.90;;
9178;SDS011;71287;48.414;11.478;2023-08-06T06:58:28;3.63;;;0.90;;
9178;SDS011;71287;48.414;11.478;2023-08-06T07:00:55;1.03;;;0.87;;
9178;SDS011;71287;48.414;11.478;2023-08-06T07:03:22;1.40;;;1.30;;
9178;SDS011;71287;48.414;11.478;2023-08-06T07:05:50;1.40;;;1.07;;
9178;SDS011;71287;48.414;11.478;2023-08-06T07:08:17;0.70;;;0.70;;
9178;SDS011;71287;48.414;11.478;2023-08-06T07:10:44;1.33;;;0.90;;
9178;SDS011;71287;48.414;11.478;2023-08-06T07:13:11;1.63;;;0.90;;
9178;SDS011;71287;48.414;11.478;2023-08-06T07:15:38;1.07;;;0.83;;
9178;SDS011;71287;48.414;11.478;2023-08-06T07:18:05;1.47;;;0.80;;
9178;SDS011;71287;48.414;11.478;2023-08-06T07:20:31;1.50;;;0.80;;
9178;SDS011;71287;48.414;11.478;2023-08-06T07:23:00;1.53;;;0.93;;
9178;SDS011;71287;48.414;11.478;2023-08-06T07:25:27;0.50;;;0.50;;
9178;SDS011;71287;48.414;11.478;2023-08-06T07:27:54;0.90;;;0.63;;
9178;SDS011;71287;48.414;11.478;2023-08-06T07:30:21;1.60;;;0.70;;
9178;SDS011;71287;48.414;11.478;2023-08-06T07:32:48;0.73;;;0.50;;
9178;SDS011;71287;48.414;11.478;2023-08-06T07:35:15;1.47;;;0.53;;
9178;SDS011;71287;48.414;11.478;2023-08-06T07:37:42;1.60;;;0.50;;
9178;SDS011;71287;48.414;11.478;2023-08-06T07:40:10;0.80;;;0.70;;
9178;SDS011;71287;48.414;11.478;2023-08-06T07:42:37;0.50;;;0.50;;
9178;SDS011;71287;48.414;11.478;2023-08-06T07:45:05;1.23;;;0.70;;
9178;SDS011;71287;48.414;11.478;2023-08-06T07:47:33;0.87;;;0.60;;
9178;SDS011;71287;48.414;11.478;2023-08-06T07:49:59;1.10;;;0.63;;
9178;SDS011;71287;48.414;11.478;2023-08-06T07:52:26;0.43;;;0.40;;
9178;SDS011;71287;48.414;11.478;2023-08-06T07:54:53;0.40;;;0.40;;
9178;SDS011;71287;48.414;11.478;2023-08-06T07:57:21;0.50;;;0.50;;
9178;SDS011;71287;48.414;11.478;2023-08-06T07:59:48;0.90;;;0.38;;
9178;SDS011;71287;48.414;11.478;2023-08-06T08:02:15;0.40;;;0.40;;
9178;SDS011;71287;48.414;11.478;2023-08-06T08:04:42;0.38;;;0.38;;
9178;SDS011;71287;48.414;11.478;2023-08-06T08:07:09;0.70;;;0.30;;
9178;SDS011;71287;48.414;11.478;2023-08-06T08:09:36;0.93;;;0.30;;
9178;SDS011;71287;48.414;11.478;2023-08-06T08:12:03;1.20;;;0.30;;
9178;SDS011;71287;48.414;11.478;2023-08-06T08:14:32;1.17;;;0.32;;
9178;SDS011;71287;48.414;11.478;2023-08-06T08:17:01;0.40;;;0.40;;
9178;SDS011;71287;48.414;11.478;2023-08-06T08:19:28;1.05;;;0.30;;
9178;SDS011;71287;48.414;11.478;2023-08-06T08:21:55;0.52;;;0.40;;
9178;SDS011;71287;48.414;11.478;2023-08-06T08:24:22;0.73;;;0.50;;
9178;SDS011;71287;48.414;11.478;2023-08-06T08:26:49;0.40;;;0.40;;
9178;SDS011;71287;48.414;11.478;2023-08-06T08:29:17;1.10;;;0.20;;
9178;SDS011;71287;48.414;11.478;2023-08-06T08:31:45;0.50;;;0.30;;
9178;SDS011;71287;48.414;11.478;2023-08-06T08:34:14;0.47;;;0.40;;
9178;SDS011;71287;48.414;11.478;2023-08-06T08:36:40;0.52;;;0.30;;
9178;SDS011;71287;48.414;11.478;2023-08-06T08:39:07;1.40;;;0.32;;
9178;SDS011;71287;48.414;11.478;2023-08-06T08:41:35;0.52;;;0.35;;
9178;SDS011;71287;48.414;11.478;2023-08-06T08:44:03;1.92;;;0.35;;
9178;SDS011;71287;48.414;11.478;2023-08-06T08:46:33;5.05;;;0.40;;
9178;SDS011;71287;48.414;11.478;2023-08-06T08:49:03;0.30;;;0.30;;
9178;SDS011;71287;48.414;11.478;2023-08-06T08:51:31;0.30;;;0.30;;
9178;SDS011;71287;48.414;11.478;2023-08-06T08:53:59;0.90;;;0.40;;
9178;SDS011;71287;48.414;11.478;2023-08-06T08:56:29;1.50;;;0.40;;
9178;SDS011;71287;48.414;11.478;2023-08-06T08:58:56;0.75;;;0.38;;
9178;SDS011;71287;48.414;11.478;2023-08-06T09:01:23;1.42;;;0.30;;
9178;SDS011;71287;48.414;11.478;2023-08-06T09:03:51;0.60;;;0.30;;
9178;SDS011;71287;48.414;11.478;2023-08-06T09:06:20;0.55;;;0.30;;
9178;SDS011;71287;48.414;11.478;2023-08-06T09:08:50;0.30;;;0.20;;
9178;SDS011;71287;48.414;11.478;2023-08-06T09:11:23;1.10;;;0.50;;
9178;SDS011;71287;48.414;11.478;2023-08-06T09:13:50;0.30;;;0.22;;
9178;SDS011;71287;48.414;11.478;2023-08-06T09:16:19;0.40;;;0.25;;
9178;SDS011;71287;48.414;11.478;2023-08-06T09:18:45;1.05;;;0.20;;
9178;SDS011;71287;48.414;11.478;2023-08-06T09:21:15;0.57;;;0.57;;
9178;SDS011;71287;48.414;11.478;2023-08-06T09:23:43;0.30;;;0.30;;
9178;SDS011;71287;48.414;11.478;2023-08-06T09:26:13;1.20;;;0.90;;
9178;SDS011;71287;48.414;11.478;2023-08-06T09:28:40;1.98;;;0.52;;
9178;SDS011;71287;48.414;11.478;2023-08-06T09:31:08;0.90;;;0.50;;
9178;SDS011;71287;48.414;11.478;2023-08-06T09:33:36;0.68;;;0.40;;
9178;SDS011;71287;48.414;11.478;2023-08-06T09:36:09;0.73;;;0.30;;
9178;SDS011;71287;48.414;11.478;2023-08-06T09:38:40;0.73;;;0.30;;
9178;SDS011;71287;48.414;11.478;2023-08-06T09:41:08;0.40;;;0.30;;
9178;SDS011;71287;48.414;11.478;2023-08-06T09:43:41;2.22;;;0.40;;
9178;SDS011;71287;48.414;11.478;2023-08-06T09:46:11;0.45;;;0.20;;
9178;SDS011;71287;48.414;11.478;2023-08-06T09:48:40;0.22;;;0.20;;
9178;SDS011;71287;48.414;11.478;2023-08-06T09:51:10;0.82;;;0.20;;
9178;SDS011;71287;48.414;11.478;2023-08-06T09:53:39;0.50;;;0.50;;
9178;SDS011;71287;48.414;11.478;2023-08-06T09:56:08;1.80;;;0.30;;
9178;SDS011;71287;48.414;11.478;2023-08-06T09:58:36;1.47;;;0.20;;
9178;SDS011;71287;48.414;11.478;2023-08-06T10:01:04;1.37;;;0.30;;
9178;SDS011;71287;48.414;11.478;2023-08-06T10:03:31;1.10;;;0.20;;
9178;SDS011;71287;48.414;11.478;2023-08-06T10:06:00;0.50;;;0.40;;
9178;SDS011;71287;48.414;11.478;2023-08-06T10:08:31;1.80;;;0.43;;
9178;SDS011;71287;48.414;11.478;2023-08-06T10:10:57;1.67;;;0.13;;
9178;SDS011;71287;48.414;11.478;2023-08-06T10:13:26;0.17;;;0.10;;
9178;SDS011;71287;48.414;11.478;2023-08-06T10:15:53;0.20;;;0.10;;
9178;SDS011;71287;48.414;11.478;2023-08-06T10:18:20;0.20;;;0.10;;
9178;SDS011;71287;48.414;11.478;2023-08-06T10:20:48;1.40;;;1.10;;
9178;SDS011;71287;48.414;11.478;2023-08-06T10:23:15;0.30;;;0.30;;
9178;SDS011;71287;48.414;11.478;2023-08-06T10:25:45;0.65;;;0.20;;
9178;SDS011;71287;48.414;11.478;2023-08-06T10:28:21;0.93;;;0.00;;
9178;SDS011;71287;48.414;11.478;2023-08-06T10:30:49;0.00;;;0.00;;
9178;SDS011;71287;48.414;11.478;2023-08-06T10:33:18;0.35;;;0.10;;
9178;SDS011;71287;48.414;11.478;2023-08-06T10:35:46;0.57;;;0.10;;
9178;SDS011;71287;48.414;11.478;2023-08-06T10:38:15;0.10;;;0.10;;
9178;SDS011;71287;48.414;11.478;2023-08-06T10:40:47;1.45;;;0.10;;
9178;SDS011;71287;48.414;11.478;2023-08-06T10:43:24;1.23;;;0.20;;
9178;SDS011;71287;48.414;11.478;2023-08-06T10:45:53;0.47;;;0.10;;
9178;SDS011;71287;48.414;11.478;2023-08-06T10:48:28;0.20;;;0.08;;
9178;SDS011;71287;48.414;11.478;2023-08-06T10:50:56;0.03;;;0.00;;
9178;SDS011;71287;48.414;11.478;2023-08-06T10:53:23;0.15;;;0.10;;
9178;SDS011;71287;48.414;11.478;2023-08-06T10:55:50;0.20;;;0.00;;
9178;SDS011;71287;48.414;11.478;2023-08-06T10:58:17;1.38;;;0.10;;
9178;SDS011;71287;48.414;11.478;2023-08-06T11:00:43;0.15;;;0.05;;
9178;SDS011;71287;48.414;11.478;2023-08-06T11:03:12;0.10;;;0.10;;
9178;SDS011;71287;48.414;11.478;2023-08-06T11:05:40;0.10;;;0.10;;
9178;SDS011;71287;48.414;11.478;2023-08-06T11:08:22;0.28;;;0.10;;
9178;SDS011;71287;48.414;11.478;2023-08-06T11:10:49;0.75;;;0.35;;
9178;SDS011;71287;48.414;11.478;2023-08-06T11:13:16;0.17;;;0.10;;
9178;SDS011;71287;48.414;11.478;2023-08-06T11:15:43;0.20;;;0.20;;
9178;SDS011;71287;48.414;11.478;2023-08-06T11:18:10;0.10;;;0.10;;
9178;SDS011;71287;48.414;11.478;2023-08-06T11:20:39;0.10;;;0.10;;
9178;SDS011;71287;48.414;11.478;2023-08-06T11:23:06;3.17;;;0.10;;
9178;SDS011;71287;48.414;11.478;2023-08-06T11:25:36;0.80;;;0.10;;
9178;SDS011;71287;48.414;11.478;2023-08-06T11:28:03;0.17;;;0.00;;
9178;SDS011;71287;48.414;11.478;2023-08-06T11:30:30;0.00;;;0.00;;
9178;SDS011;71287;48.414;11.478;2023-08-06T11:32:56;0.10;;;0.10;;
9178;SDS011;71287;48.414;11.478;2023-08-06T11:35:25;1.00;;;0.00;;
9178;SDS011;71287;48.414;11.478;2023-08-06T11:37:51;0.00;;;0.00;;
9178;SDS011;71287;48.414;11.478;2023-08-06T11:40:18;0.30;;;0.10;;
9178;SDS011;71287;48.414;11.478;2023-08-06T11:42:46;0.20;;;0.00;;
9178;SDS011;71287;48.414;11.478;2023-08-06T11:45:13;0.20;;;0.05;;
9178;SDS011;71287;48.414;11.478;2023-08-06T11:47:40;0.85;;;0.10;;
9178;SDS011;71287;48.414;11.478;2023-08-06T11:50:07;0.05;;;0.05;;
9178;SDS011;71287;48.414;11.478;2023-08-06T11:52:38;0.10;;;0.00;;
9178;SDS011;71287;48.414;11.478;2023-08-06T11:55:07;0.00;;;0.00;;
9178;SDS011;71287;48.414;11.478;2023-08-06T11:57:36;0.00;;;0.00;;
9178;SDS011;71287;48.414;11.478;2023-08-06T12:00:05;0.00;;;0.00;;
9178;SDS011;71287;48.414;11.478;2023-08-06T12:02:33;0.55;;;0.10;;
9178;SDS011;71287;48.414;11.478;2023-08-06T12:05:03;0.20;;;0.00;;
9178;SDS011;71287;48.414;11.478;2023-08-06T12:07:38;0.28;;;0.10;;
9178;SDS011;71287;48.414;11.478;2023-08-06T12:10:08;0.20;;;0.00;;
9178;SDS011;71287;48.414;11.478;2023-08-06T12:12:35;0.40;;;0.00;;
9178;SDS011;71287;48.414;11.478;2023-08-06T12:18:30;0.10;;;0.00;;
9178;SDS011;71287;48.414;11.478;2023-08-06T12:30:32;0.03;;;0.03;;
9178;SDS011;71287;48.414;11.478;2023-08-06T12:33:13;0.38;;;0.08;;
9178;SDS011;71287;48.414;11.478;2023-08-06T12:35:40;0.75;;;0.20;;
9178;SDS011;71287;48.414;11.478;2023-08-06T12:38:07;0.47;;;0.10;;
9178;SDS011;71287;48.414;11.478;2023-08-06T12:40:33;0.65;;;0.00;;
9178;SDS011;71287;48.414;11.478;2023-08-06T12:43:00;0.00;;;0.00;;
9178;SDS011;71287;48.414;11.478;2023-08-06T12:45:28;0.47;;;0.00;;
9178;SDS011;71287;48.414;11.478;2023-08-06T12:47:55;0.10;;;0.00;;
9178;SDS011;71287;48.414;11.478;2023-08-06T12:50:22;0.00;;;0.00;;
9178;SDS011;71287;48.414;11.478;2023-08-06T12:52:48;0.00;;;0.00;;
9178;SDS011;71287;48.414;11.478;2023-08-06T12:55:15;0.00;;;0.00;;
9178;SDS011;71287;48.414;11.478;2023-08-06T12:57:42;0.00;;;0.00;;
9178;SDS011;71287;48.414;11.478;2023-08-06T13:00:09;1.35;;;0.00;;
9178;SDS011;71287;48.414;11.478;2023-08-06T13:02:37;0.10;;;0.00;;
9178;SDS011;71287;48.414;11.478;2023-08-06T13:05:04;0.00;;;0.00;;
9178;SDS011;71287;48.414;11.478;2023-08-06T13:07:32;0.35;;;0.10;;
9178;SDS011;71287;48.414;11.478;2023-08-06T13:09:58;0.10;;;0.10;;
9178;SDS011;71287;48.414;11.478;2023-08-06T13:12:25;0.32;;;0.10;;
9178;SDS011;71287;48.414;11.478;2023-08-06T13:14:52;0.00;;;0.00;;
9178;SDS011;71287;48.414;11.478;2023-08-06T13:17:23;0.20;;;0.00;;
9178;SDS011;71287;48.414;11.478;2023-08-06T13:19:52;0.05;;;0.00;;
9178;SDS011;71287;48.414;11.478;2023-08-06T13:22:19;0.08;;;0.00;;
9178;SDS011;71287;48.414;11.478;2023-08-06T13:24:45;0.10;;;0.03;;
9178;SDS011;71287;48.414;11.478;2023-08-06T13:27:12;0.00;;;0.00;;
9178;SDS011;71287;48.414;11.478;2023-08-06T13:29:39;0.07;;;0.00;;
9178;SDS011;71287;48.414;11.478;2023-08-06T13:32:06;0.20;;;0.05;;
9178;SDS011;71287;48.414;11.478;2023-08-06T13:34:32;0.43;;;0.00;;
9178;SDS011;71287;48.414;11.478;2023-08-06T13:37:00;0.52;;;0.00;;
9178;SDS011;71287;48.414;11.478;2023-08-06T13:39:27;1.50;;;0.07;;
9178;SDS011;71287;48.414;11.478;2023-08-06T13:41:54;0.00;;;0.00;;
9178;SDS011;71287;48.414;11.478;2023-08-06T13:44:21;0.00;;;0.00;;
9178;SDS011;71287;48.414;11.478;2023-08-06T13:46:47;0.10;;;0.10;;
9178;SDS011;71287;48.414;11.478;2023-08-06T13:49:14;0.10;;;0.10;;
9178;SDS011;71287;48.414;11.478;2023-08-06T13:51:41;0.03;;;0.03;;
9178;SDS011;71287;48.414;11.478;2023-08-06T13:54:09;0.03;;;0.00;;
9178;SDS011;71287;48.414;11.478;2023-08-06T13:56:36;0.00;;;0.00;;
9178;SDS011;71287;48.414;11.478;2023-08-06T13:59:03;0.30;;;0.27;;
9178;SDS011;71287;48.414;11.478;2023-08-06T14:01:30;0.10;;;0.10;;
9178;SDS011;71287;48.414;11.478;2023-08-06T14:03:57;0.10;;;0.00;;
9178;SDS011;71287;48.414;11.478;2023-08-06T14:06:23;0.00;;;0.00;;
9178;SDS011;71287;48.414;11.478;2023-08-06T14:08:50;0.20;;;0.00;;
9178;SDS011;71287;48.414;11.478;2023-08-06T14:11:18;0.00;;;0.00;;
9178;SDS011;71287;48.414;11.478;2023-08-06T14:13:45;3.37;;;0.20;;
9178;SDS011;71287;48.414;11.478;2023-08-06T14:16:12;0.10;;;0.00;;
9178;SDS011;71287;48.414;11.478;2023-08-06T14:18:39;0.70;;;0.00;;
9178;SDS011;71287;48.414;11.478;2023-08-06T14:21:06;0.90;;;0.30;;
9178;SDS011;71287;48.414;11.478;2023-08-06T14:23:33;0.20;;;0.10;;
9178;SDS011;71287;48.414;11.478;2023-08-06T14:26:00;0.23;;;0.10;;
9178;SDS011;71287;48.414;11.478;2023-08-06T14:28:28;0.30;;;0.20;;
9178;SDS011;71287;48.414;11.478;2023-08-06T14:30:55;0.70;;;0.10;;
9178;SDS011;71287;48.414;11.478;2023-08-06T14:33:22;0.87;;;0.10;;
9178;SDS011;71287;48.414;11.478;2023-08-06T14:35:48;0.30;;;0.00;;
9178;SDS011;71287;48.414;11.478;2023-08-06T14:38:15;5.20;;;1.63;;
9178;SDS011;71287;48.414;11.478;2023-08-06T14:40:43;2.63;;;0.30;;
9178;SDS011;71287;48.414;11.478;2023-08-06T14:43:09;0.10;;;0.10;;
9178;SDS011;71287;48.414;11.478;2023-08-06T14:45:38;0.03;;;0.00;;
9178;SDS011;71287;48.414;11.478;2023-08-06T14:48:05;0.73;;;0.03;;
9178;SDS011;71287;48.414;11.478;2023-08-06T14:50:32;0.00;;;0.00;;
9178;SDS011;71287;48.414;11.478;2023-08-06T14:52:59;1.17;;;0.10;;
9178;SDS011;71287;48.414;11.478;2023-08-06T14:55:27;0.07;;;0.00;;
9178;SDS011;71287;48.414;11.478;2023-08-06T14:57:54;0.10;;;0.10;;
9178;SDS011;71287;48.414;11.478;2023-08-06T15:00:21;0.07;;;0.00;;
9178;SDS011;71287;48.414;11.478;2023-08-06T15:02:49;0.30;;;0.10;;